ADDS METAR Data INFO
IDs: Format: Raw Decoded Include TAF

Data at: 2317 UTC 15 Jul 2018

KPBF 152253Z AUTO 12007KT 10SM CLR 33/25 A2991 RMK AO2 SLP124 T03330250
KPBF 152153Z AUTO 13008KT 10SM CLR 33/25 A2993 RMK AO2 SLP133 T03280250
KPBF 152053Z AUTO 12006KT 10SM BKN070 31/25 A2994 RMK AO2 SLP137 60007 T03060250 56022
KPBF 151953Z AUTO VRB03KT 10SM FEW065 SCT080 BKN100 29/24 A2996 RMK AO2 LTG DSNT SE RAB20E37 TSE03 SLP141 P0007 T02940239
KPBF 151906Z AUTO 14010KT 10SM FEW060 FEW070 31/22 A2998 RMK AO2 LTG DSNT E AND SE TSE03 T03060217
KPBF 151849Z AUTO 16009KT 10SM TS FEW060 SCT070 SCT090 32/23 A2999 RMK AO2 LTG DSNT E AND SE TSB48 SLP151 T03170228
KPBF 151848Z AUTO 16009KT 10SM TS FEW060 SCT070 SCT090 32/22 A2999 RMK AO2 LTG DSNT E AND SE TSB48
KPBF 151753Z AUTO VRB03KT 10SM FEW120 33/21 A3001 RMK AO2 SLP159 T03330211 10344 20250 58004
KPBF 151653Z AUTO 23005KT 10SM CLR 34/22 A3002 RMK AO2 SLP163 T03390217
KPBF 151553Z AUTO 26007KT 10SM CLR 33/22 A3002 RMK AO2 SLP163 T03280222
KPBF 151453Z AUTO 26007KT 10SM CLR 31/23 A3002 RMK AO2 SLP164 T03110228 50001
KPBF 151353Z AUTO 25006KT 10SM CLR 29/23 A3004 RMK AO2 SLP168 T02890228
KPBF 151253Z AUTO 25003KT 10SM CLR 26/23 A3003 RMK AO2 SLP167 T02610228
KPBF 151153Z AUTO 00000KT 10SM CLR 25/23 A3002 RMK AO2 SLP163 70086 T02500228 10261 20239 53010
KPBF 151053Z AUTO 00000KT 10SM CLR 24/22 A3001 RMK AO2 SLP158 T02440222
KPBF 150953Z AUTO 00000KT 10SM CLR 25/23 A3000 RMK AO2 SLP155 T02500228
KPBF 150853Z AUTO 17003KT 10SM CLR 25/23 A2999 RMK AO2 SLP152 T02500228 56006
KPBF 150753Z AUTO 00000KT 10SM CLR 26/23 A2999 RMK AO2 SLP153 T02560228
KPBF 150653Z AUTO 24003KT 10SM CLR 26/23 A2999 RMK AO2 SLP154 T02610228
KPBF 150553Z AUTO 20004KT 10SM CLR 26/23 A3001 RMK AO2 SLP159 T02560233 10317 20256 403500239 50003
KPBF 150453Z AUTO 19004KT 10SM CLR 26/24 A3002 RMK AO2 SLP162 T02610239
KPBF 150353Z AUTO 16005KT 10SM CLR 27/24 A3001 RMK AO2 SLP160 T02670244
KPBF 150253Z AUTO 18006KT 10SM CLR 28/24 A3000 RMK AO2 SLP156 T02830244 53013
KPBF 150153Z AUTO 00000KT 10SM FEW060 28/26 A2999 RMK AO2 SLP152 T02780256
KPBF 150053Z AUTO 13004KT 10SM CLR 29/26 A2997 RMK AO2 SLP145 T02940261
KPBF 142353Z AUTO 13006KT 10SM CLR 32/24 A2996 RMK AO2 SLP143 60086 T03170244 10344 20239 56020
KPBF 142253Z AUTO 15004KT 10SM CLR 33/24 A2997 RMK AO2 SLP145 T03330244
KPBF 142153Z AUTO 15003KT 10SM CLR 32/24 A2998 RMK AO2 RAE2056 SLP150 P0000 T03170244
KPBF 142053Z AUTO 18005KT 10SM -RA BKN110 26/23 A3002 RMK AO2 LTG DSNT NW TSE22 SLP163 P0009 60086 T02610233 58013
KPBF 142028Z AUTO 19004KT 6SM -RA FEW075 OVC110 26/22 A3004 RMK AO2 TSE22 P0008 T02560222
KPBF 142001Z AUTO 16008KT 3SM TSRA SCT021 BKN055 OVC095 24/21 A3005 RMK AO2 LTG DSNT NE-S P0004 T02440211
KPBF 141958Z AUTO 12008KT 1 3/4SM TSRA SCT021 BKN055 OVC095 24/21 A3004 RMK AO2 LTG DSNT NE AND S P0003 T02390211
KPBF 141953Z AUTO 13010KT 1/2SM +TSRA BKN019 BKN055 OVC070 24/21 A3004 RMK AO2 PK WND 13041/1917 WSHFT 1930 LTG DSNT NE RAB17 PRESFR SLP170 P0077 T02440211
KPBF 141949Z AUTO 15010G33KT 1/4SM +TSRA BKN011 BKN055 OVC070 25/21 A3005 RMK AO2 PK WND 13041/1917 WSHFT 1930 LTG DSNT NE AND S RAB17 P0072
KPBF 141944Z AUTO 15010G36KT 1/2SM +TSRA SCT008 BKN055 OVC070 25/21 A3009 RMK AO2 PK WND 13041/1917 WSHFT 1930 LTG DSNT S RAB17 PRESRR P0055 T02500206
KPBF 141940Z AUTO 17027G36KT 1SM +TSRA FEW008 BKN055 OVC070 26/22 A3008 RMK AO2 PK WND 13041/1917 LTG DSNT S RAB17 PRESRR P0026 T02560222
KPBF 141923Z AUTO 10015G41KT 4SM -TSRA FEW006 BKN055 OVC090 26/21 A3005 RMK AO2 PK WND 13041/1917 LTG DSNT ALQDS RAB17 P0003 T02610211
KPBF 141853Z AUTO 14007KT 10SM TS FEW050 SCT075 BKN100 33/22 A3005 RMK AO2 LTG DSNT E AND SE TSB29 SLP172 T03330222
KPBF 141829Z AUTO 24004KT 10SM TS FEW050 SCT075 34/21 A3005 RMK AO2 LTG DSNT SE TSB29 T03390211
KPBF 141753Z AUTO 23007KT 10SM FEW050 34/22 A3006 RMK AO2 LTG DSNT SE SLP176 T03390217 10350 20244 58007
KPBF 141653Z AUTO 25004KT 10SM FEW044 34/22 A3008 RMK AO2 SLP181 T03440222
KPBF 141553Z AUTO 24006KT 10SM CLR 33/22 A3008 RMK AO2 SLP184 T03280222
KPBF 141453Z AUTO 26009KT 10SM CLR 31/22 A3008 RMK AO2 SLP183 T03110222 50004
KPBF 141353Z AUTO 24005KT 10SM CLR 28/23 A3008 RMK AO2 SLP184 T02830228
KPBF 141253Z AUTO 27004KT 10SM CLR 26/23 A3007 RMK AO2 SLP180 T02560228
KPBF 141153Z AUTO 21003KT 9SM CLR 24/23 A3007 RMK AO2 SLP179 T02440228 10261 20239 53007